sensor_id;sensor_type;location;lat;lon;timestamp;P1;durP1;ratioP1;P2;durP2;ratioP2
6983;SDS011;3532;51.118;7.210;2023-03-16T00:01:55;7.07;;;5.43;;
6983;SDS011;3532;51.118;7.210;2023-03-16T00:04:21;7.57;;;5.47;;
6983;SDS011;3532;51.118;7.210;2023-03-16T00:06:46;7.17;;;5.57;;
6983;SDS011;3532;51.118;7.210;2023-03-16T00:09:11;6.40;;;5.80;;
6983;SDS011;3532;51.118;7.210;2023-03-16T00:11:37;9.90;;;5.13;;
6983;SDS011;3532;51.118;7.210;2023-03-16T00:14:02;6.97;;;5.33;;
6983;SDS011;3532;51.118;7.210;2023-03-16T00:16:28;9.13;;;5.20;;
6983;SDS011;3532;51.118;7.210;2023-03-16T00:18:53;6.37;;;5.10;;
6983;SDS011;3532;51.118;7.210;2023-03-16T00:21:18;6.47;;;5.40;;
6983;SDS011;3532;51.118;7.210;2023-03-16T00:23:46;7.18;;;5.53;;
6983;SDS011;3532;51.118;7.210;2023-03-16T00:26:11;7.90;;;5.73;;
6983;SDS011;3532;51.118;7.210;2023-03-16T00:28:37;6.77;;;5.47;;
6983;SDS011;3532;51.118;7.210;2023-03-16T00:31:03;9.30;;;5.67;;
6983;SDS011;3532;51.118;7.210;2023-03-16T00:33:29;6.38;;;5.13;;
6983;SDS011;3532;51.118;7.210;2023-03-16T00:35:58;7.85;;;5.15;;
6983;SDS011;3532;51.118;7.210;2023-03-16T00:38:32;8.00;;;5.40;;
6983;SDS011;3532;51.118;7.210;2023-03-16T00:41:01;7.35;;;5.55;;
6983;SDS011;3532;51.118;7.210;2023-03-16T00:43:31;7.78;;;5.20;;
6983;SDS011;3532;51.118;7.210;2023-03-16T00:46:04;7.32;;;5.13;;
6983;SDS011;3532;51.118;7.210;2023-03-16T00:48:34;6.85;;;5.30;;
6983;SDS011;3532;51.118;7.210;2023-03-16T00:51:03;9.50;;;5.40;;
6983;SDS011;3532;51.118;7.210;2023-03-16T00:53:34;7.85;;;5.75;;
6983;SDS011;3532;51.118;7.210;2023-03-16T00:56:00;8.90;;;5.53;;
6983;SDS011;3532;51.118;7.210;2023-03-16T00:58:32;7.18;;;5.53;;
6983;SDS011;3532;51.118;7.210;2023-03-16T01:01:00;8.50;;;5.40;;
6983;SDS011;3532;51.118;7.210;2023-03-16T01:03:29;8.63;;;5.63;;
6983;SDS011;3532;51.118;7.210;2023-03-16T01:05:55;6.07;;;5.30;;
6983;SDS011;3532;51.118;7.210;2023-03-16T01:08:24;8.43;;;5.72;;
6983;SDS011;3532;51.118;7.210;2023-03-16T01:10:52;7.45;;;5.00;;
6983;SDS011;3532;51.118;7.210;2023-03-16T01:13:18;8.77;;;4.95;;
6983;SDS011;3532;51.118;7.210;2023-03-16T01:15:43;6.60;;;5.90;;
6983;SDS011;3532;51.118;7.210;2023-03-16T01:18:10;9.35;;;5.75;;
6983;SDS011;3532;51.118;7.210;2023-03-16T01:20:37;6.63;;;5.35;;
6983;SDS011;3532;51.118;7.210;2023-03-16T01:23:03;7.37;;;4.93;;
6983;SDS011;3532;51.118;7.210;2023-03-16T01:25:28;8.67;;;5.27;;
6983;SDS011;3532;51.118;7.210;2023-03-16T01:27:53;8.43;;;5.87;;
6983;SDS011;3532;51.118;7.210;2023-03-16T01:30:19;5.47;;;4.60;;
6983;SDS011;3532;51.118;7.210;2023-03-16T01:32:44;6.23;;;5.27;;
6983;SDS011;3532;51.118;7.210;2023-03-16T01:35:10;7.40;;;5.23;;
6983;SDS011;3532;51.118;7.210;2023-03-16T01:37:35;5.70;;;4.70;;
6983;SDS011;3532;51.118;7.210;2023-03-16T01:40:01;6.67;;;5.10;;
6983;SDS011;3532;51.118;7.210;2023-03-16T01:42:30;7.03;;;4.40;;
6983;SDS011;3532;51.118;7.210;2023-03-16T01:44:56;5.13;;;4.53;;
6983;SDS011;3532;51.118;7.210;2023-03-16T01:47:25;6.13;;;5.47;;
6983;SDS011;3532;51.118;7.210;2023-03-16T01:49:51;6.50;;;5.05;;
6983;SDS011;3532;51.118;7.210;2023-03-16T01:52:20;6.70;;;4.88;;
6983;SDS011;3532;51.118;7.210;2023-03-16T01:54:52;6.50;;;4.90;;
6983;SDS011;3532;51.118;7.210;2023-03-16T01:57:20;7.53;;;4.75;;
6983;SDS011;3532;51.118;7.210;2023-03-16T01:59:47;6.10;;;5.20;;
6983;SDS011;3532;51.118;7.210;2023-03-16T02:02:14;6.75;;;4.65;;
6983;SDS011;3532;51.118;7.210;2023-03-16T02:04:44;5.63;;;4.55;;
6983;SDS011;3532;51.118;7.210;2023-03-16T02:07:12;7.70;;;5.22;;
6983;SDS011;3532;51.118;7.210;2023-03-16T02:09:41;5.32;;;4.82;;
6983;SDS011;3532;51.118;7.210;2023-03-16T02:12:11;5.95;;;4.85;;
6983;SDS011;3532;51.118;7.210;2023-03-16T02:14:42;6.57;;;4.78;;
6983;SDS011;3532;51.118;7.210;2023-03-16T02:17:12;6.50;;;4.50;;
6983;SDS011;3532;51.118;7.210;2023-03-16T02:22:17;5.90;;;4.28;;
6983;SDS011;3532;51.118;7.210;2023-03-16T02:24:43;5.40;;;4.23;;
6983;SDS011;3532;51.118;7.210;2023-03-16T02:27:09;7.83;;;4.23;;
6983;SDS011;3532;51.118;7.210;2023-03-16T02:29:44;5.53;;;4.25;;
6983;SDS011;3532;51.118;7.210;2023-03-16T02:32:20;6.28;;;4.07;;
6983;SDS011;3532;51.118;7.210;2023-03-16T02:34:47;5.43;;;4.68;;
6983;SDS011;3532;51.118;7.210;2023-03-16T02:37:12;6.67;;;3.83;;
6983;SDS011;3532;51.118;7.210;2023-03-16T02:39:38;6.80;;;4.20;;
6983;SDS011;3532;51.118;7.210;2023-03-16T02:42:03;4.40;;;4.00;;
6983;SDS011;3532;51.118;7.210;2023-03-16T02:44:33;6.93;;;4.33;;
6983;SDS011;3532;51.118;7.210;2023-03-16T02:47:00;4.53;;;3.92;;
6983;SDS011;3532;51.118;7.210;2023-03-16T02:49:33;4.75;;;3.88;;
6983;SDS011;3532;51.118;7.210;2023-03-16T02:52:01;8.65;;;4.47;;
6983;SDS011;3532;51.118;7.210;2023-03-16T02:54:27;5.93;;;4.35;;
6983;SDS011;3532;51.118;7.210;2023-03-16T02:56:52;7.70;;;5.37;;
6983;SDS011;3532;51.118;7.210;2023-03-16T02:59:18;4.53;;;4.10;;
6983;SDS011;3532;51.118;7.210;2023-03-16T03:01:43;7.13;;;4.10;;
6983;SDS011;3532;51.118;7.210;2023-03-16T03:04:09;6.47;;;4.30;;
6983;SDS011;3532;51.118;7.210;2023-03-16T03:06:34;5.97;;;4.33;;
6983;SDS011;3532;51.118;7.210;2023-03-16T03:09:00;3.97;;;3.47;;
6983;SDS011;3532;51.118;7.210;2023-03-16T03:11:26;5.38;;;3.88;;
6983;SDS011;3532;51.118;7.210;2023-03-16T03:13:52;5.00;;;3.63;;
6983;SDS011;3532;51.118;7.210;2023-03-16T03:16:18;6.85;;;3.80;;
6983;SDS011;3532;51.118;7.210;2023-03-16T03:18:43;5.30;;;3.77;;
6983;SDS011;3532;51.118;7.210;2023-03-16T03:21:09;4.07;;;3.50;;
6983;SDS011;3532;51.118;7.210;2023-03-16T03:23:34;8.97;;;3.93;;
6983;SDS011;3532;51.118;7.210;2023-03-16T03:26:00;7.27;;;4.50;;
6983;SDS011;3532;51.118;7.210;2023-03-16T03:28:26;4.55;;;3.42;;
6983;SDS011;3532;51.118;7.210;2023-03-16T03:30:52;3.87;;;3.47;;
6983;SDS011;3532;51.118;7.210;2023-03-16T03:33:17;5.60;;;3.93;;
6983;SDS011;3532;51.118;7.210;2023-03-16T03:35:43;4.90;;;3.53;;
6983;SDS011;3532;51.118;7.210;2023-03-16T03:38:09;5.30;;;3.77;;
6983;SDS011;3532;51.118;7.210;2023-03-16T03:40:35;4.55;;;4.15;;
6983;SDS011;3532;51.118;7.210;2023-03-16T03:43:01;4.67;;;3.53;;
6983;SDS011;3532;51.118;7.210;2023-03-16T03:45:26;7.40;;;4.43;;
6983;SDS011;3532;51.118;7.210;2023-03-16T03:47:51;6.50;;;3.70;;
6983;SDS011;3532;51.118;7.210;2023-03-16T03:50:17;4.83;;;3.53;;
6983;SDS011;3532;51.118;7.210;2023-03-16T03:52:42;3.93;;;3.60;;
6983;SDS011;3532;51.118;7.210;2023-03-16T03:55:07;5.43;;;3.70;;
6983;SDS011;3532;51.118;7.210;2023-03-16T03:57:33;6.10;;;3.70;;
6983;SDS011;3532;51.118;7.210;2023-03-16T03:59:59;4.20;;;3.63;;
6983;SDS011;3532;51.118;7.210;2023-03-16T04:02:24;8.80;;;3.67;;
6983;SDS011;3532;51.118;7.210;2023-03-16T04:04:50;9.23;;;4.10;;
6983;SDS011;3532;51.118;7.210;2023-03-16T04:07:15;6.77;;;4.00;;
6983;SDS011;3532;51.118;7.210;2023-03-16T04:09:41;4.73;;;3.70;;
6983;SDS011;3532;51.118;7.210;2023-03-16T04:12:06;6.33;;;3.93;;
6983;SDS011;3532;51.118;7.210;2023-03-16T04:14:32;3.83;;;3.30;;
6983;SDS011;3532;51.118;7.210;2023-03-16T04:16:57;4.90;;;3.80;;
6983;SDS011;3532;51.118;7.210;2023-03-16T04:19:23;4.63;;;3.83;;
6983;SDS011;3532;51.118;7.210;2023-03-16T04:21:49;3.97;;;3.67;;
6983;SDS011;3532;51.118;7.210;2023-03-16T04:24:14;7.33;;;4.47;;
6983;SDS011;3532;51.118;7.210;2023-03-16T04:26:40;5.27;;;4.27;;
6983;SDS011;3532;51.118;7.210;2023-03-16T04:29:08;5.93;;;3.95;;
6983;SDS011;3532;51.118;7.210;2023-03-16T04:31:34;5.27;;;4.17;;
6983;SDS011;3532;51.118;7.210;2023-03-16T04:33:59;7.00;;;3.97;;
6983;SDS011;3532;51.118;7.210;2023-03-16T04:36:26;4.55;;;4.00;;
6983;SDS011;3532;51.118;7.210;2023-03-16T04:38:52;6.57;;;4.60;;
6983;SDS011;3532;51.118;7.210;2023-03-16T04:41:17;8.53;;;4.43;;
6983;SDS011;3532;51.118;7.210;2023-03-16T04:43:43;6.07;;;4.30;;
6983;SDS011;3532;51.118;7.210;2023-03-16T04:46:08;7.10;;;3.77;;
6983;SDS011;3532;51.118;7.210;2023-03-16T04:48:34;8.07;;;4.57;;
6983;SDS011;3532;51.118;7.210;2023-03-16T04:51:00;9.43;;;4.80;;
6983;SDS011;3532;51.118;7.210;2023-03-16T04:53:27;5.63;;;4.22;;
6983;SDS011;3532;51.118;7.210;2023-03-16T04:55:53;5.07;;;4.55;;
6983;SDS011;3532;51.118;7.210;2023-03-16T04:58:19;4.60;;;3.80;;
6983;SDS011;3532;51.118;7.210;2023-03-16T05:00:44;5.53;;;4.70;;
6983;SDS011;3532;51.118;7.210;2023-03-16T05:03:09;4.70;;;4.10;;
6983;SDS011;3532;51.118;7.210;2023-03-16T05:05:36;7.87;;;4.50;;
6983;SDS011;3532;51.118;7.210;2023-03-16T05:08:02;6.40;;;4.53;;
6983;SDS011;3532;51.118;7.210;2023-03-16T05:10:30;5.75;;;4.28;;
6983;SDS011;3532;51.118;7.210;2023-03-16T05:12:55;5.50;;;4.30;;
6983;SDS011;3532;51.118;7.210;2023-03-16T05:15:21;6.13;;;5.53;;
6983;SDS011;3532;51.118;7.210;2023-03-16T05:17:46;5.67;;;4.53;;
6983;SDS011;3532;51.118;7.210;2023-03-16T05:20:12;6.33;;;4.77;;
6983;SDS011;3532;51.118;7.210;2023-03-16T05:22:41;8.85;;;4.55;;
6983;SDS011;3532;51.118;7.210;2023-03-16T05:25:08;6.78;;;4.93;;
6983;SDS011;3532;51.118;7.210;2023-03-16T05:27:37;5.30;;;4.43;;
6983;SDS011;3532;51.118;7.210;2023-03-16T05:30:03;6.77;;;5.10;;
6983;SDS011;3532;51.118;7.210;2023-03-16T05:32:28;4.90;;;4.43;;
6983;SDS011;3532;51.118;7.210;2023-03-16T05:34:54;6.77;;;4.63;;
6983;SDS011;3532;51.118;7.210;2023-03-16T05:37:19;6.47;;;4.63;;
6983;SDS011;3532;51.118;7.210;2023-03-16T05:39:44;5.53;;;4.50;;
6983;SDS011;3532;51.118;7.210;2023-03-16T05:42:10;6.20;;;4.43;;
6983;SDS011;3532;51.118;7.210;2023-03-16T05:44:35;6.37;;;5.50;;
6983;SDS011;3532;51.118;7.210;2023-03-16T05:47:00;5.60;;;4.40;;
6983;SDS011;3532;51.118;7.210;2023-03-16T05:49:26;5.43;;;4.87;;
6983;SDS011;3532;51.118;7.210;2023-03-16T05:51:51;5.87;;;4.50;;
6983;SDS011;3532;51.118;7.210;2023-03-16T05:54:16;7.03;;;4.67;;
6983;SDS011;3532;51.118;7.210;2023-03-16T05:56:42;6.27;;;4.87;;
6983;SDS011;3532;51.118;7.210;2023-03-16T05:59:07;6.23;;;5.00;;
6983;SDS011;3532;51.118;7.210;2023-03-16T06:01:32;5.93;;;5.03;;
6983;SDS011;3532;51.118;7.210;2023-03-16T06:03:58;6.60;;;5.17;;
6983;SDS011;3532;51.118;7.210;2023-03-16T06:06:23;5.43;;;4.50;;
6983;SDS011;3532;51.118;7.210;2023-03-16T06:08:49;9.07;;;5.47;;
6983;SDS011;3532;51.118;7.210;2023-03-16T06:11:14;6.40;;;5.33;;
6983;SDS011;3532;51.118;7.210;2023-03-16T06:13:40;7.73;;;5.20;;
6983;SDS011;3532;51.118;7.210;2023-03-16T06:16:05;7.10;;;5.13;;
6983;SDS011;3532;51.118;7.210;2023-03-16T06:18:31;6.27;;;4.50;;
6983;SDS011;3532;51.118;7.210;2023-03-16T06:20:57;6.13;;;5.22;;
6983;SDS011;3532;51.118;7.210;2023-03-16T06:23:22;8.20;;;5.17;;
6983;SDS011;3532;51.118;7.210;2023-03-16T06:25:48;7.33;;;4.90;;
6983;SDS011;3532;51.118;7.210;2023-03-16T06:28:14;10.00;;;5.00;;
6983;SDS011;3532;51.118;7.210;2023-03-16T06:30:39;5.00;;;4.50;;
6983;SDS011;3532;51.118;7.210;2023-03-16T06:33:05;5.27;;;4.70;;
6983;SDS011;3532;51.118;7.210;2023-03-16T06:35:30;8.57;;;5.20;;
6983;SDS011;3532;51.118;7.210;2023-03-16T06:37:56;5.73;;;5.13;;
6983;SDS011;3532;51.118;7.210;2023-03-16T06:40:21;5.43;;;4.40;;
6983;SDS011;3532;51.118;7.210;2023-03-16T06:42:47;9.07;;;5.13;;
6983;SDS011;3532;51.118;7.210;2023-03-16T06:45:12;8.37;;;5.63;;
6983;SDS011;3532;51.118;7.210;2023-03-16T06:47:40;5.03;;;4.53;;
6983;SDS011;3532;51.118;7.210;2023-03-16T06:50:07;6.85;;;5.47;;
6983;SDS011;3532;51.118;7.210;2023-03-16T06:52:33;8.07;;;5.07;;
6983;SDS011;3532;51.118;7.210;2023-03-16T06:54:58;8.90;;;4.47;;
6983;SDS011;3532;51.118;7.210;2023-03-16T06:57:24;5.57;;;5.03;;
6983;SDS011;3532;51.118;7.210;2023-03-16T06:59:49;5.80;;;5.00;;
6983;SDS011;3532;51.118;7.210;2023-03-16T07:02:15;7.20;;;4.93;;
6983;SDS011;3532;51.118;7.210;2023-03-16T07:04:41;7.30;;;5.20;;
6983;SDS011;3532;51.118;7.210;2023-03-16T07:07:06;5.50;;;4.93;;
6983;SDS011;3532;51.118;7.210;2023-03-16T07:09:32;5.18;;;4.68;;
6983;SDS011;3532;51.118;7.210;2023-03-16T07:11:57;6.20;;;4.97;;
6983;SDS011;3532;51.118;7.210;2023-03-16T07:14:23;6.83;;;4.93;;
6983;SDS011;3532;51.118;7.210;2023-03-16T07:16:50;5.93;;;5.18;;
6983;SDS011;3532;51.118;7.210;2023-03-16T07:19:16;6.15;;;4.80;;
6983;SDS011;3532;51.118;7.210;2023-03-16T07:21:42;7.53;;;5.70;;
6983;SDS011;3532;51.118;7.210;2023-03-16T07:24:08;6.13;;;5.53;;
6983;SDS011;3532;51.118;7.210;2023-03-16T07:26:34;8.23;;;5.55;;
6983;SDS011;3532;51.118;7.210;2023-03-16T07:28:59;6.33;;;5.50;;
6983;SDS011;3532;51.118;7.210;2023-03-16T07:31:25;6.03;;;5.33;;
6983;SDS011;3532;51.118;7.210;2023-03-16T07:33:50;7.10;;;6.37;;
6983;SDS011;3532;51.118;7.210;2023-03-16T07:36:16;7.10;;;5.93;;
6983;SDS011;3532;51.118;7.210;2023-03-16T07:38:41;7.03;;;5.83;;
6983;SDS011;3532;51.118;7.210;2023-03-16T07:41:06;7.90;;;5.50;;
6983;SDS011;3532;51.118;7.210;2023-03-16T07:43:32;7.37;;;6.17;;
6983;SDS011;3532;51.118;7.210;2023-03-16T07:45:58;5.33;;;4.63;;
6983;SDS011;3532;51.118;7.210;2023-03-16T07:48:23;6.10;;;5.37;;
6983;SDS011;3532;51.118;7.210;2023-03-16T07:50:49;7.53;;;5.57;;
6983;SDS011;3532;51.118;7.210;2023-03-16T07:53:14;7.13;;;5.67;;
6983;SDS011;3532;51.118;7.210;2023-03-16T07:55:40;6.50;;;5.70;;
6983;SDS011;3532;51.118;7.210;2023-03-16T07:58:06;5.65;;;5.15;;
6983;SDS011;3532;51.118;7.210;2023-03-16T08:00:34;7.77;;;6.13;;
6983;SDS011;3532;51.118;7.210;2023-03-16T08:02:59;6.97;;;5.60;;
6983;SDS011;3532;51.118;7.210;2023-03-16T08:05:26;6.97;;;4.97;;
6983;SDS011;3532;51.118;7.210;2023-03-16T08:07:51;6.40;;;5.73;;
6983;SDS011;3532;51.118;7.210;2023-03-16T08:10:17;6.50;;;5.87;;
6983;SDS011;3532;51.118;7.210;2023-03-16T08:12:42;6.13;;;5.53;;
6983;SDS011;3532;51.118;7.210;2023-03-16T08:15:07;6.27;;;5.67;;
6983;SDS011;3532;51.118;7.210;2023-03-16T08:17:34;8.27;;;5.93;;
6983;SDS011;3532;51.118;7.210;2023-03-16T08:20:00;7.70;;;6.20;;
6983;SDS011;3532;51.118;7.210;2023-03-16T08:22:27;6.33;;;5.67;;
6983;SDS011;3532;51.118;7.210;2023-03-16T08:24:53;8.93;;;6.47;;
6983;SDS011;3532;51.118;7.210;2023-03-16T08:27:18;8.40;;;6.77;;
6983;SDS011;3532;51.118;7.210;2023-03-16T08:29:44;8.80;;;6.87;;
6983;SDS011;3532;51.118;7.210;2023-03-16T08:32:09;9.40;;;7.10;;
6983;SDS011;3532;51.118;7.210;2023-03-16T08:34:36;9.93;;;6.50;;
6983;SDS011;3532;51.118;7.210;2023-03-16T08:37:03;7.13;;;6.43;;
6983;SDS011;3532;51.118;7.210;2023-03-16T08:39:29;8.73;;;6.17;;
6983;SDS011;3532;51.118;7.210;2023-03-16T08:41:54;8.73;;;7.47;;
6983;SDS011;3532;51.118;7.210;2023-03-16T08:44:21;9.40;;;7.23;;
6983;SDS011;3532;51.118;7.210;2023-03-16T08:46:47;8.77;;;6.80;;
6983;SDS011;3532;51.118;7.210;2023-03-16T08:49:13;8.23;;;7.10;;
6983;SDS011;3532;51.118;7.210;2023-03-16T08:51:38;8.30;;;6.80;;
6983;SDS011;3532;51.118;7.210;2023-03-16T08:54:03;10.10;;;7.37;;
6983;SDS011;3532;51.118;7.210;2023-03-16T08:56:29;10.27;;;6.97;;
6983;SDS011;3532;51.118;7.210;2023-03-16T08:58:54;9.97;;;7.80;;
6983;SDS011;3532;51.118;7.210;2023-03-16T09:01:21;8.30;;;7.50;;
6983;SDS011;3532;51.118;7.210;2023-03-16T09:03:47;10.73;;;7.80;;
6983;SDS011;3532;51.118;7.210;2023-03-16T09:06:14;11.03;;;6.70;;
6983;SDS011;3532;51.118;7.210;2023-03-16T09:08:40;8.10;;;7.30;;
6983;SDS011;3532;51.118;7.210;2023-03-16T09:11:07;9.43;;;7.70;;
6983;SDS011;3532;51.118;7.210;2023-03-16T09:13:34;8.00;;;7.20;;
6983;SDS011;3532;51.118;7.210;2023-03-16T09:16:00;9.57;;;7.13;;
6983;SDS011;3532;51.118;7.210;2023-03-16T09:18:25;8.47;;;6.27;;
6983;SDS011;3532;51.118;7.210;2023-03-16T09:20:52;13.17;;;7.73;;
6983;SDS011;3532;51.118;7.210;2023-03-16T09:23:21;8.93;;;6.73;;
6983;SDS011;3532;51.118;7.210;2023-03-16T09:25:46;9.47;;;7.77;;
6983;SDS011;3532;51.118;7.210;2023-03-16T09:28:12;9.03;;;7.03;;
6983;SDS011;3532;51.118;7.210;2023-03-16T09:30:37;9.03;;;7.53;;
6983;SDS011;3532;51.118;7.210;2023-03-16T09:33:02;8.90;;;7.07;;
6983;SDS011;3532;51.118;7.210;2023-03-16T09:35:28;8.77;;;7.70;;
6983;SDS011;3532;51.118;7.210;2023-03-16T09:37:53;9.17;;;6.13;;
6983;SDS011;3532;51.118;7.210;2023-03-16T09:40:20;7.10;;;6.40;;
6983;SDS011;3532;51.118;7.210;2023-03-16T09:42:53;9.13;;;7.90;;
6983;SDS011;3532;51.118;7.210;2023-03-16T09:48:13;9.80;;;7.10;;
6983;SDS011;3532;51.118;7.210;2023-03-16T09:50:39;9.37;;;7.00;;
6983;SDS011;3532;51.118;7.210;2023-03-16T09:53:15;8.30;;;6.97;;
6983;SDS011;3532;51.118;7.210;2023-03-16T09:55:47;7.10;;;6.40;;
6983;SDS011;3532;51.118;7.210;2023-03-16T09:58:17;10.47;;;6.73;;
6983;SDS011;3532;51.118;7.210;2023-03-16T10:06:29;9.80;;;6.77;;
6983;SDS011;3532;51.118;7.210;2023-03-16T10:09:06;6.73;;;6.03;;
6983;SDS011;3532;51.118;7.210;2023-03-16T10:11:46;8.77;;;6.07;;
6983;SDS011;3532;51.118;7.210;2023-03-16T10:14:20;8.73;;;6.43;;
6983;SDS011;3532;51.118;7.210;2023-03-16T10:16:57;8.47;;;6.27;;
6983;SDS011;3532;51.118;7.210;2023-03-16T10:19:29;8.87;;;6.40;;
6983;SDS011;3532;51.118;7.210;2023-03-16T10:22:01;10.83;;;5.40;;
6983;SDS011;3532;51.118;7.210;2023-03-16T10:24:51;8.13;;;5.60;;
6983;SDS011;3532;51.118;7.210;2023-03-16T10:27:22;6.57;;;5.87;;
6983;SDS011;3532;51.118;7.210;2023-03-16T10:29:52;5.80;;;5.20;;
6983;SDS011;3532;51.118;7.210;2023-03-16T10:32:17;7.13;;;5.30;;
6983;SDS011;3532;51.118;7.210;2023-03-16T10:34:44;7.27;;;5.27;;
6983;SDS011;3532;51.118;7.210;2023-03-16T10:37:13;8.47;;;6.60;;
6983;SDS011;3532;51.118;7.210;2023-03-16T10:39:38;7.23;;;5.80;;
6983;SDS011;3532;51.118;7.210;2023-03-16T10:42:13;7.40;;;5.27;;
6983;SDS011;3532;51.118;7.210;2023-03-16T10:44:40;5.17;;;4.70;;
6983;SDS011;3532;51.118;7.210;2023-03-16T10:47:06;8.00;;;5.70;;
6983;SDS011;3532;51.118;7.210;2023-03-16T10:52:03;5.63;;;5.10;;
6983;SDS011;3532;51.118;7.210;2023-03-16T10:54:35;6.83;;;5.60;;
6983;SDS011;3532;51.118;7.210;2023-03-16T10:57:18;5.47;;;4.93;;
6983;SDS011;3532;51.118;7.210;2023-03-16T10:59:49;5.87;;;4.97;;
6983;SDS011;3532;51.118;7.210;2023-03-16T11:02:21;5.60;;;4.63;;
6983;SDS011;3532;51.118;7.210;2023-03-16T11:04:55;6.23;;;4.70;;
6983;SDS011;3532;51.118;7.210;2023-03-16T11:07:21;5.60;;;4.97;;
6983;SDS011;3532;51.118;7.210;2023-03-16T11:09:50;5.90;;;4.67;;
6983;SDS011;3532;51.118;7.210;2023-03-16T11:12:26;5.57;;;4.87;;
6983;SDS011;3532;51.118;7.210;2023-03-16T11:15:00;6.53;;;4.93;;
6983;SDS011;3532;51.118;7.210;2023-03-16T11:17:44;4.67;;;4.17;;
6983;SDS011;3532;51.118;7.210;2023-03-16T11:20:13;4.87;;;4.13;;
6983;SDS011;3532;51.118;7.210;2023-03-16T11:22:41;5.13;;;4.63;;
6983;SDS011;3532;51.118;7.210;2023-03-16T11:28:00;4.63;;;4.13;;
6983;SDS011;3532;51.118;7.210;2023-03-16T11:30:55;5.03;;;4.27;;
6983;SDS011;3532;51.118;7.210;2023-03-16T11:33:25;5.27;;;4.30;;
6983;SDS011;3532;51.118;7.210;2023-03-16T11:35:52;5.30;;;4.43;;
6983;SDS011;3532;51.118;7.210;2023-03-16T11:41:00;5.50;;;4.63;;
6983;SDS011;3532;51.118;7.210;2023-03-16T11:46:16;6.77;;;4.10;;
6983;SDS011;3532;51.118;7.210;2023-03-16T11:51:29;4.80;;;4.40;;
6983;SDS011;3532;51.118;7.210;2023-03-16T12:07:12;4.37;;;3.80;;
6983;SDS011;3532;51.118;7.210;2023-03-16T12:09:51;7.17;;;4.30;;
6983;SDS011;3532;51.118;7.210;2023-03-16T12:12:33;6.87;;;4.70;;
6983;SDS011;3532;51.118;7.210;2023-03-16T12:15:16;4.57;;;4.07;;
6983;SDS011;3532;51.118;7.210;2023-03-16T12:17:46;4.00;;;3.60;;
6983;SDS011;3532;51.118;7.210;2023-03-16T12:20:21;4.03;;;3.63;;
6983;SDS011;3532;51.118;7.210;2023-03-16T12:23:07;5.60;;;3.80;;
6983;SDS011;3532;51.118;7.210;2023-03-16T12:25:36;4.10;;;3.70;;
6983;SDS011;3532;51.118;7.210;2023-03-16T12:28:04;7.87;;;3.83;;
6983;SDS011;3532;51.118;7.210;2023-03-16T12:31:18;5.33;;;3.50;;
6983;SDS011;3532;51.118;7.210;2023-03-16T12:33:42;4.20;;;3.80;;
6983;SDS011;3532;51.118;7.210;2023-03-16T12:38:50;4.93;;;3.30;;
6983;SDS011;3532;51.118;7.210;2023-03-16T12:49:17;4.17;;;3.77;;
6983;SDS011;3532;51.118;7.210;2023-03-16T12:51:44;5.37;;;3.33;;
6983;SDS011;3532;51.118;7.210;2023-03-16T12:54:19;3.87;;;3.30;;
6983;SDS011;3532;51.118;7.210;2023-03-16T12:56:49;4.67;;;3.70;;
6983;SDS011;3532;51.118;7.210;2023-03-16T12:59:22;5.03;;;3.70;;
6983;SDS011;3532;51.118;7.210;2023-03-16T13:01:52;11.40;;;4.77;;
6983;SDS011;3532;51.118;7.210;2023-03-16T13:04:22;5.27;;;3.77;;
6983;SDS011;3532;51.118;7.210;2023-03-16T13:09:54;3.97;;;3.40;;
6983;SDS011;3532;51.118;7.210;2023-03-16T13:14:51;3.40;;;3.03;;
6983;SDS011;3532;51.118;7.210;2023-03-16T13:17:25;4.40;;;3.10;;
6983;SDS011;3532;51.118;7.210;2023-03-16T13:20:10;4.47;;;3.27;;
6983;SDS011;3532;51.118;7.210;2023-03-16T13:22:50;3.90;;;3.43;;
6983;SDS011;3532;51.118;7.210;2023-03-16T13:25:43;4.90;;;3.43;;
6983;SDS011;3532;51.118;7.210;2023-03-16T13:28:10;3.63;;;3.30;;
6983;SDS011;3532;51.118;7.210;2023-03-16T13:30:39;3.97;;;3.40;;
6983;SDS011;3532;51.118;7.210;2023-03-16T13:33:16;6.27;;;3.60;;
6983;SDS011;3532;51.118;7.210;2023-03-16T13:35:44;4.43;;;3.50;;
6983;SDS011;3532;51.118;7.210;2023-03-16T13:38:13;3.83;;;3.20;;
6983;SDS011;3532;51.118;7.210;2023-03-16T13:40:47;5.43;;;3.17;;
6983;SDS011;3532;51.118;7.210;2023-03-16T13:43:14;4.37;;;3.20;;
6983;SDS011;3532;51.118;7.210;2023-03-16T13:45:41;3.73;;;3.07;;
6983;SDS011;3532;51.118;7.210;2023-03-16T13:48:10;7.13;;;3.80;;
6983;SDS011;3532;51.118;7.210;2023-03-16T13:50:39;5.40;;;3.20;;
6983;SDS011;3532;51.118;7.210;2023-03-16T13:53:15;5.83;;;3.30;;
6983;SDS011;3532;51.118;7.210;2023-03-16T13:55:44;3.20;;;2.90;;
6983;SDS011;3532;51.118;7.210;2023-03-16T13:58:21;4.23;;;3.43;;
6983;SDS011;3532;51.118;7.210;2023-03-16T14:00:48;3.03;;;2.63;;
6983;SDS011;3532;51.118;7.210;2023-03-16T14:03:15;3.73;;;2.90;;
6983;SDS011;3532;51.118;7.210;2023-03-16T14:05:42;4.63;;;2.90;;
6983;SDS011;3532;51.118;7.210;2023-03-16T14:08:20;2.83;;;2.50;;
6983;SDS011;3532;51.118;7.210;2023-03-16T14:10:47;4.03;;;2.90;;
6983;SDS011;3532;51.118;7.210;2023-03-16T14:13:25;3.17;;;2.77;;
6983;SDS011;3532;51.118;7.210;2023-03-16T14:16:05;5.30;;;2.50;;
6983;SDS011;3532;51.118;7.210;2023-03-16T14:18:40;4.83;;;2.60;;
6983;SDS011;3532;51.118;7.210;2023-03-16T14:21:09;3.93;;;2.83;;
6983;SDS011;3532;51.118;7.210;2023-03-16T14:23:45;3.97;;;2.40;;
6983;SDS011;3532;51.118;7.210;2023-03-16T14:26:14;2.37;;;2.10;;
6983;SDS011;3532;51.118;7.210;2023-03-16T14:28:40;5.10;;;2.60;;
6983;SDS011;3532;51.118;7.210;2023-03-16T14:31:18;2.40;;;2.20;;
6983;SDS011;3532;51.118;7.210;2023-03-16T14:33:44;4.10;;;2.37;;
6983;SDS011;3532;51.118;7.210;2023-03-16T14:36:11;2.10;;;1.90;;
6983;SDS011;3532;51.118;7.210;2023-03-16T14:38:38;6.43;;;2.43;;
6983;SDS011;3532;51.118;7.210;2023-03-16T14:41:09;2.43;;;1.90;;
6983;SDS011;3532;51.118;7.210;2023-03-16T14:43:44;3.80;;;1.93;;
6983;SDS011;3532;51.118;7.210;2023-03-16T14:46:11;3.13;;;1.90;;
6983;SDS011;3532;51.118;7.210;2023-03-16T14:48:39;2.27;;;2.00;;
6983;SDS011;3532;51.118;7.210;2023-03-16T14:51:05;3.00;;;2.00;;
6983;SDS011;3532;51.118;7.210;2023-03-16T14:53:36;2.77;;;2.00;;
6983;SDS011;3532;51.118;7.210;2023-03-16T14:56:02;2.30;;;2.10;;
6983;SDS011;3532;51.118;7.210;2023-03-16T14:58:27;2.33;;;1.93;;
6983;SDS011;3532;51.118;7.210;2023-03-16T15:00:53;2.73;;;2.10;;
6983;SDS011;3532;51.118;7.210;2023-03-16T15:03:19;3.47;;;2.07;;
6983;SDS011;3532;51.118;7.210;2023-03-16T15:05:47;2.23;;;2.03;;
6983;SDS011;3532;51.118;7.210;2023-03-16T15:08:18;1.77;;;1.67;;
6983;SDS011;3532;51.118;7.210;2023-03-16T15:10:46;3.47;;;2.10;;
6983;SDS011;3532;51.118;7.210;2023-03-16T15:13:16;2.07;;;1.87;;
6983;SDS011;3532;51.118;7.210;2023-03-16T15:15:59;2.37;;;2.10;;
6983;SDS011;3532;51.118;7.210;2023-03-16T15:18:27;1.60;;;1.50;;
6983;SDS011;3532;51.118;7.210;2023-03-16T15:20:52;3.00;;;2.13;;
6983;SDS011;3532;51.118;7.210;2023-03-16T15:23:18;2.23;;;2.03;;
6983;SDS011;3532;51.118;7.210;2023-03-16T15:25:43;2.90;;;2.43;;
6983;SDS011;3532;51.118;7.210;2023-03-16T15:30:40;3.93;;;1.83;;
6983;SDS011;3532;51.118;7.210;2023-03-16T15:33:07;3.57;;;2.20;;
6983;SDS011;3532;51.118;7.210;2023-03-16T15:35:33;2.80;;;2.00;;
6983;SDS011;3532;51.118;7.210;2023-03-16T15:38:00;2.17;;;1.73;;
6983;SDS011;3532;51.118;7.210;2023-03-16T15:40:27;4.77;;;1.80;;
6983;SDS011;3532;51.118;7.210;2023-03-16T15:42:53;2.20;;;2.00;;
6983;SDS011;3532;51.118;7.210;2023-03-16T15:45:20;2.10;;;2.00;;
6983;SDS011;3532;51.118;7.210;2023-03-16T15:47:46;2.33;;;1.83;;
6983;SDS011;3532;51.118;7.210;2023-03-16T15:50:13;5.50;;;2.30;;
6983;SDS011;3532;51.118;7.210;2023-03-16T15:52:40;2.63;;;2.13;;
6983;SDS011;3532;51.118;7.210;2023-03-16T15:58:08;3.03;;;2.33;;
6983;SDS011;3532;51.118;7.210;2023-03-16T16:00:41;2.43;;;2.20;;
6983;SDS011;3532;51.118;7.210;2023-03-16T16:03:09;2.57;;;2.37;;
6983;SDS011;3532;51.118;7.210;2023-03-16T16:05:35;3.37;;;2.47;;
6983;SDS011;3532;51.118;7.210;2023-03-16T16:08:01;2.20;;;2.00;;
6983;SDS011;3532;51.118;7.210;2023-03-16T16:10:26;3.00;;;2.50;;
6983;SDS011;3532;51.118;7.210;2023-03-16T16:12:53;5.83;;;2.87;;
6983;SDS011;3532;51.118;7.210;2023-03-16T16:15:20;2.20;;;2.00;;
6983;SDS011;3532;51.118;7.210;2023-03-16T16:17:51;3.23;;;2.93;;
6983;SDS011;3532;51.118;7.210;2023-03-16T16:20:18;2.77;;;2.20;;